Time;durP1;ratioP1;P1;durP2;ratioP2;P2;SDS_P1;SDS_P2;PMS_P1;PMS_P2;Temp;Humidity;BMP_temperature;BMP_pressure;BME280_temperature;BME280_humidity;BME280_pressure;Samples;Min_cycle;Max_cycle;Signal;HPM_P1;HPM_P2
2023/03/28 00:01:10;;;;;;;;;;;;;;;;;;4740947;30;19973;-90
2023/03/28 00:03:38;;;;;;;;;;;;;;;;;;4732889;30;19936;-90
2023/03/28 00:06:08;;;;;;;;;;;;;;;;;;4725116;30;20686;-91
2023/03/28 00:08:35;;;;;;;;;;;;;;;;;;4743703;30;20326;-90
2023/03/28 00:11:01;;;;;;;;;;;;;;;;;;4722694;30;22060;-91
2023/03/28 00:13:28;;;;;;;;;;;;;;;;;;4708504;30;19929;-91
2023/03/28 00:15:54;;;;;;;;;;;;;;;;;;4715565;30;20372;-91
2023/03/28 00:18:20;;;;;;;;;;;;;;;;;;4706424;30;20024;-90
2023/03/28 00:20:47;;;;;;;;;;;;;;;;;;4703809;30;20349;-91
2023/03/28 00:23:13;;;;;;;;;;;;;;;;;;4705357;30;20007;-91
2023/03/28 00:25:40;;;;;;;;;;;;;;;;;;4705901;30;22024;-91
2023/03/28 00:28:06;;;;;;;;;;;;;;;;;;4703161;30;20378;-90
2023/03/28 00:30:32;;;;;;;;;;;;;;;;;;4722794;30;19967;-91
2023/03/28 00:32:58;;;;;;;;;;;;;;;;;;4706747;30;19930;-91
2023/03/28 00:35:24;;;;;;;;;;;;;;;;;;4710735;30;19991;-90
2023/03/28 00:37:50;;;;;;;;;;;;;;;;;;4717700;30;20382;-91
2023/03/28 00:40:16;;;;;;;;;;;;;;;;;;4744142;30;19961;-90
2023/03/28 00:42:42;;;;;;;;;;;;;;;;;;4719828;30;19949;-91
2023/03/28 00:45:08;;;;;;;;;;;;;;;;;;4730061;30;19938;-90
2023/03/28 00:47:36;;;;;;;;;;;;;;;;;;4713426;30;19972;-90
2023/03/28 00:50:02;;;;;;;;;;;;;;;;;;4720260;30;22664;-90
2023/03/28 00:52:28;;;;;;;;;;;;;;;;;;4724305;30;19941;-92
2023/03/28 00:54:56;;;;;;;;;;;;;;;;;;4706376;30;20263;-91
2023/03/28 00:57:22;;;;;;;;;;;;;;;;;;4725761;30;20072;-90
2023/03/28 00:59:48;;;;;;;;;;;;;;;;;;4709116;30;19994;-91
2023/03/28 01:02:14;;;;;;;;;;;;;;;;;;4728693;30;20015;-91
2023/03/28 01:04:45;;;;;;;;;;;;;;;;;;4715144;30;19934;-91
2023/03/28 01:07:11;;;;;;;;;;;;;;;;;;4723745;30;19937;-91
2023/03/28 01:09:37;;;;;;;;;;;;;;;;;;4723599;30;20398;-92
2023/03/28 01:12:03;;;;;;;;;;;;;;;;;;4719276;30;19979;-92
2023/03/28 01:14:29;;;;;;;;;;;;;;;;;;4709210;30;19930;-92
2023/03/28 01:16:58;;;;;;;;;;;;;;;;;;4716971;30;19934;-91
2023/03/28 01:19:25;;;;;;;;;;;;;;;;;;4708415;30;19931;-91
2023/03/28 01:21:52;;;;;;;;;;;;;;;;;;4707383;30;19995;-92
2023/03/28 01:24:18;;;;;;;;;;;;;;;;;;4706306;30;19992;-91
2023/03/28 01:26:44;;;;;;;;;;;;;;;;;;4717492;30;19938;-92
2023/03/28 01:29:10;;;;;;;;;;;;;;;;;;4714409;30;19938;-91
2023/03/28 01:31:36;;;;;;;;;;;;;;;;;;4707933;30;19934;-91
2023/03/28 01:34:03;;;;;;;;;;;;;;;;;;4706316;30;19969;-91
2023/03/28 01:36:29;;;;;;;;;;;;;;;;;;4723140;30;19938;-91
2023/03/28 01:38:55;;;;;;;;;;;;;;;;;;4700154;30;19934;-91
2023/03/28 01:41:21;;;;;;;;;;;;;;;;;;4725006;30;19930;-92
2023/03/28 01:43:47;;;;;;;;;;;;;;;;;;4710826;30;20012;-92
2023/03/28 01:46:13;;;;;;;;;;;;;;;;;;4727026;30;20383;-91
2023/03/28 01:48:39;;;;;;;;;;;;;;;;;;4709298;30;19930;-92
2023/03/28 01:51:05;;;;;;;;;;;;;;;;;;4727055;30;20338;-92
2023/03/28 01:53:31;;;;;;;;;;;;;;;;;;4732308;30;19934;-92
2023/03/28 01:55:57;;;;;;;;;;;;;;;;;;4715542;30;19948;-92
2023/03/28 01:58:23;;;;;;;;;;;;;;;;;;4731333;30;20003;-92
2023/03/28 02:00:49;;;;;;;;;;;;;;;;;;4725210;30;20028;-93
2023/03/28 02:03:17;;;;;;;;;;;;;;;;;;4733997;30;19926;-92
2023/03/28 02:05:43;;;;;;;;;;;;;;;;;;4716759;30;19942;-93
2023/03/28 02:08:09;;;;;;;;;;;;;;;;;;4714967;30;19927;-93
2023/03/28 02:10:35;;;;;;;;;;;;;;;;;;4729166;30;19987;-93
2023/03/28 02:13:01;;;;;;;;;;;;;;;;;;4711255;30;19938;-93
2023/03/28 02:15:27;;;;;;;;;;;;;;;;;;4712135;30;19934;-93
2023/03/28 02:17:53;;;;;;;;;;;;;;;;;;4720745;30;19930;-92
2023/03/28 02:20:19;;;;;;;;;;;;;;;;;;4711010;30;19930;-94
2023/03/28 02:22:45;;;;;;;;;;;;;;;;;;4708965;30;19926;-93
2023/03/28 02:25:11;;;;;;;;;;;;;;;;;;4720586;30;19992;-93
2023/03/28 02:27:38;;;;;;;;;;;;;;;;;;4709829;30;20042;-93
2023/03/28 02:30:04;;;;;;;;;;;;;;;;;;4706997;30;19926;-93
2023/03/28 02:32:32;;;;;;;;;;;;;;;;;;4705822;30;19938;-93
2023/03/28 02:34:58;;;;;;;;;;;;;;;;;;4709391;30;19941;-94
2023/03/28 02:37:24;;;;;;;;;;;;;;;;;;4713195;30;20559;-94
2023/03/28 02:39:50;;;;;;;;;;;;;;;;;;4720517;30;19940;-94
2023/03/28 02:42:16;;;;;;;;;;;;;;;;;;4716114;30;19941;-94
2023/03/28 02:44:42;;;;;;;;;;;;;;;;;;4709479;30;20322;-93
2023/03/28 02:47:08;;;;;;;;;;;;;;;;;;4711551;30;19941;-94
2023/03/28 02:49:34;;;;;;;;;;;;;;;;;;4726309;30;20340;-94
2023/03/28 02:52:00;;;;;;;;;;;;;;;;;;4723253;30;19934;-93
2023/03/28 02:54:26;;;;;;;;;;;;;;;;;;4711994;30;20365;-94
2023/03/28 02:56:55;;;;;;;;;;;;;;;;;;4719482;30;19936;-94
2023/03/28 02:59:23;;;;;;;;;;;;;;;;;;4730798;30;19964;-94
2023/03/28 03:01:49;;;;;;;;;;;;;;;;;;4730448;30;20297;-94
2023/03/28 03:04:16;;;;;;;;;;;;;;;;;;4731378;30;19976;-94
2023/03/28 03:06:44;;;;;;;;;;;;;;;;;;4717223;30;19953;-93
2023/03/28 03:09:10;;;;;;;;;;;;;;;;;;4727529;30;19944;-93
2023/03/28 03:11:36;;;;;;;;;;;;;;;;;;4712825;30;19933;-94
2023/03/28 03:14:02;;;;;;;;;;;;;;;;;;4708662;30;21046;-93
2023/03/28 03:16:28;;;;;;;;;;;;;;;;;;4710107;30;19930;-94
2023/03/28 03:18:55;;;;;;;;;;;;;;;;;;4707216;30;19943;-94
2023/03/28 03:21:22;;;;;;;;;;;;;;;;;;4726774;30;20294;-94
2023/03/28 03:23:48;;;;;;;;;;;;;;;;;;4709217;30;19932;-95
2023/03/28 03:26:14;;;;;;;;;;;;;;;;;;4716481;30;19934;-94
2023/03/28 03:28:40;;;;;;;;;;;;;;;;;;4708825;30;19934;-93
2023/03/28 03:31:07;;;;;;;;;;;;;;;;;;4721679;30;19931;-94
2023/03/28 03:33:33;;;;;;;;;;;;;;;;;;4724363;30;19934;-94
2023/03/28 03:36:03;;;;;;;;;;;;;;;;;;4738623;30;22090;-94
2023/03/28 03:38:29;;;;;;;;;;;;;;;;;;4711929;30;20512;-95
2023/03/28 03:40:55;;;;;;;;;;;;;;;;;;4727080;30;19934;-94
2023/03/28 03:43:26;;;;;;;;;;;;;;;;;;4712829;30;19930;-94
2023/03/28 03:45:52;;;;;;;;;;;;;;;;;;4710923;30;19933;-94
2023/03/28 03:48:18;;;;;;;;;;;;;;;;;;4732243;30;19933;-95
2023/03/28 03:50:44;;;;;;;;;;;;;;;;;;4716085;30;19932;-94
2023/03/28 03:53:10;;;;;;;;;;;;;;;;;;4717744;30;19937;-94
2023/03/28 03:55:36;;;;;;;;;;;;;;;;;;4718870;30;20287;-94
2023/03/28 03:58:02;;;;;;;;;;;;;;;;;;4712888;30;19969;-95
2023/03/28 04:00:28;;;;;;;;;;;;;;;;;;4714665;30;19937;-94
2023/03/28 04:02:54;;;;;;;;;;;;;;;;;;4716815;30;19926;-94
2023/03/28 04:05:20;;;;;;;;;;;;;;;;;;4720580;30;20310;-94
2023/03/28 04:07:46;;;;;;;;;;;;;;;;;;4713664;30;19926;-94
2023/03/28 04:10:12;;;;;;;;;;;;;;;;;;4719750;30;19938;-94
2023/03/28 04:12:38;;;;;;;;;;;;;;;;;;4728171;30;20105;-94
2023/03/28 04:15:04;;;;;;;;;;;;;;;;;;4707594;30;19937;-95
2023/03/28 04:17:33;;;;;;;;;;;;;;;;;;4724592;30;20359;-94
2023/03/28 04:20:00;;;;;;;;;;;;;;;;;;4707400;30;19933;-94
2023/03/28 04:22:28;;;;;;;;;;;;;;;;;;4726215;30;19973;-94
2023/03/28 04:24:55;;;;;;;;;;;;;;;;;;4703440;30;19926;-96
2023/03/28 04:27:25;;;;;;;;;;;;;;;;;;4709417;30;19930;-94
2023/03/28 04:29:52;;;;;;;;;;;;;;;;;;4722880;30;19977;-94
2023/03/28 04:32:20;;;;;;;;;;;;;;;;;;4724588;30;19938;-94
2023/03/28 04:34:46;;;;;;;;;;;;;;;;;;4723923;30;19960;-93
2023/03/28 04:37:12;;;;;;;;;;;;;;;;;;4714535;30;19930;-94
2023/03/28 04:39:40;;;;;;;;;;;;;;;;;;4731119;30;19994;-94
2023/03/28 04:42:07;;;;;;;;;;;;;;;;;;4728631;30;20062;-94
2023/03/28 04:44:33;;;;;;;;;;;;;;;;;;4710508;30;20959;-95
2023/03/28 04:46:59;;;;;;;;;;;;;;;;;;4713611;30;20052;-94
2023/03/28 04:49:25;;;;;;;;;;;;;;;;;;4729229;30;19930;-95
2023/03/28 04:51:51;;;;;;;;;;;;;;;;;;4716371;30;19970;-94
2023/03/28 04:54:17;;;;;;;;;;;;;;;;;;4714515;30;19926;-94
2023/03/28 04:56:44;;;;;;;;;;;;;;;;;;4733827;30;19925;-94
2023/03/28 04:59:10;;;;;;;;;;;;;;;;;;4719394;30;20007;-94
2023/03/28 05:01:36;;;;;;;;;;;;;;;;;;4730732;30;19969;-94
2023/03/28 05:04:02;;;;;;;;;;;;;;;;;;4715096;30;19996;-95
2023/03/28 05:06:28;;;;;;;;;;;;;;;;;;4731127;30;19930;-93
2023/03/28 05:08:54;;;;;;;;;;;;;;;;;;4726121;30;20679;-95
2023/03/28 05:11:20;;;;;;;;;;;;;;;;;;4723557;30;20033;-94
2023/03/28 05:13:46;;;;;;;;;;;;;;;;;;4715528;30;19934;-95
2023/03/28 05:16:12;;;;;;;;;;;;;;;;;;4722938;30;19960;-94
2023/03/28 05:18:38;;;;;;;;;;;;;;;;;;4715756;30;19933;-94
2023/03/28 05:21:04;;;;;;;;;;;;;;;;;;4709811;30;20035;-94
2023/03/28 05:23:32;;;;;;;;;;;;;;;;;;4712470;30;20014;-94
2023/03/28 05:25:58;;;;;;;;;;;;;;;;;;4697160;30;20025;-94
2023/03/28 05:28:24;;;;;;;;;;;;;;;;;;4682638;30;20402;-94
2023/03/28 05:30:50;;;;;;;;;;;;;;;;;;4672066;30;19988;-95
2023/03/28 05:33:16;;;;;;;;;;;;;;;;;;4695475;30;19930;-94
2023/03/28 05:35:42;;;;;;;;;;;;;;;;;;4683220;30;20045;-94
2023/03/28 05:38:08;;;;;;;;;;;;;;;;;;4689802;30;20004;-94
2023/03/28 05:40:34;;;;;;;;;;;;;;;;;;4698936;30;19927;-93
2023/03/28 05:46:07;;;;;;;;;;;;;;;;;;4701507;30;19980;-94
2023/03/28 05:48:33;;;;;;;;;;;;;;;;;;4691920;30;19935;-94
2023/03/28 05:50:59;;;;;;;;;;;;;;;;;;4689450;30;19931;-93
2023/03/28 05:53:25;;;;;;;;;;;;;;;;;;4710972;30;20110;-93
2023/03/28 05:55:51;;;;;;;;;;;;;;;;;;4715389;30;19969;-93
2023/03/28 05:58:18;;;;;;;;;;;;;;;;;;4741130;30;20386;-93
2023/03/28 06:00:45;;;;;;;;;;;;;;;;;;4724298;30;19933;-94
2023/03/28 06:03:11;;;;;;;;;;;;;;;;;;4721331;30;20655;-92
2023/03/28 06:05:37;;;;;;;;;;;;;;;;;;4727432;30;20020;-93
2023/03/28 06:32:48;;;;;;;;;;;;;;;;;;;;;
2023/03/28 06:42:15;;;;;;;;;;;;;;;;;;4806299;24;20036;-84
2023/03/28 06:44:41;;;;;;;;;;;;;;;;;;4738032;30;20004;-85
2023/03/28 06:47:07;;;;;;;;;;;;;;;;;;4774901;30;20383;-85
2023/03/28 06:49:33;;;;;;;;;;;;;;;;;;4748250;29;19937;-85
2023/03/28 06:51:59;;;;;;;;;;;;;;;;;;4729483;30;20037;-84
2023/03/28 06:54:25;;;;;;;;;;;;;;;;;;4739392;30;20378;-85
2023/03/28 06:56:51;;;;;;;;;;;;;;;;;;4742530;30;19925;-84
2023/03/28 06:59:17;;;;;;;;;;;;;;;;;;4755268;29;19931;-85
2023/03/28 07:01:43;;;;;;;;;;;;;;;;;;4729350;30;19969;-84
2023/03/28 07:04:09;;;;;;;;;;;;;;;;;;4754188;30;19968;-84
2023/03/28 07:06:35;;;;;;;;;;;;;;;;;;4754667;30;19930;-84
2023/03/28 07:09:01;;;;;;;;;;;;;;;;;;4741898;29;20520;-84
2023/03/28 07:11:27;;;;;;;;;;;;;;;;;;4746197;30;19934;-83
2023/03/28 07:13:53;;;;;;;;;;;;;;;;;;4751715;30;19929;-83
2023/03/28 07:16:19;;;;;;;;;;;;;;;;;;4744778;29;19925;-83
2023/03/28 07:18:45;;;;;;;;;;;;;;;;;;4746895;29;19936;-84
2023/03/28 07:21:11;;;;;;;;;;;;;;;;;;4756588;29;19933;-84
2023/03/28 07:23:38;;;;;;;;;;;;;;;;;;4756434;29;19930;-84
2023/03/28 07:26:05;;;;;;;;;;;;;;;;;;4731305;30;19941;-84
2023/03/28 07:28:31;;;;;;;;;;;;;;;;;;4748618;30;19934;-84
2023/03/28 07:30:59;;;;;;;;;;;;;;;;;;4756174;30;20028;-83
2023/03/28 07:33:25;;;;;;;;;;;;;;;;;;4740131;30;20012;-83
2023/03/28 07:35:51;;;;;;;;;;;;;;;;;;4769765;30;20385;-83
2023/03/28 07:38:17;;;;;;;;;;;;;;;;;;4753783;30;19937;-83
2023/03/28 07:40:43;;;;;;;;;;;;;;;;;;4753204;30;19926;-84
2023/03/28 07:43:09;;;;;;;;;;;;;;;;;;4736506;30;19973;-84
2023/03/28 07:45:36;;;;;;;;;;;;;;;;;;4755932;30;20024;-84
2023/03/28 07:48:02;;;;;;;;;;;;;;;;;;4749400;30;20837;-83
2023/03/28 07:50:27;;;;;;;;;;;;;;;;;;4737549;30;19929;-83
2023/03/28 07:52:56;;;;;;;;;;;;;;;;;;4744947;29;19933;-84
2023/03/28 07:55:22;;;;;;;;;;;;;;;;;;4754594;30;19930;-84
2023/03/28 07:57:48;;;;;;;;;;;;;;;;;;4733602;30;19926;-84
2023/03/28 08:00:16;;;;;;;;;;;;;;;;;;4750614;30;20352;-84
2023/03/28 08:02:42;;;;;;;;;;;;;;;;;;4746972;30;20334;-84
2023/03/28 08:05:08;;;;;;;;;;;;;;;;;;4734726;30;20013;-84
2023/03/28 08:07:34;;;;;;;;;;;;;;;;;;4752232;30;20371;-84
2023/03/28 08:10:00;;;;;;;;;;;;;;;;;;4752560;30;19930;-84
2023/03/28 08:12:26;;;;;;;;;;;;;;;;;;4755275;30;19930;-84
2023/03/28 08:14:52;;;;;;;;;;;;;;;;;;4743825;30;19926;-85
2023/03/28 08:17:18;;;;;;;;;;;;;;;;;;4749898;30;19937;-84
2023/03/28 08:19:44;;;;;;;;;;;;;;;;;;4750341;30;19988;-84
2023/03/28 08:22:11;;;;;;;;;;;;;;;;;;4744372;30;20024;-84
2023/03/28 08:24:37;;;;;;;;;;;;;;;;;;4754930;30;19934;-84
2023/03/28 08:27:03;;;;;;;;;;;;;;;;;;4744466;30;19941;-84
2023/03/28 08:29:29;;;;;;;;;;;;;;;;;;4750690;30;19934;-82
2023/03/28 08:31:55;;;;;;;;;;;;;;;;;;4753760;30;19932;-82
2023/03/28 08:34:21;;;;;;;;;;;;;;;;;;4738404;30;19937;-82
2023/03/28 08:36:47;;;;;;;;;;;;;;;;;;4732522;30;19930;-81
2023/03/28 08:39:14;;;;;;;;;;;;;;;;;;4757445;29;19929;-82
2023/03/28 08:41:40;;;;;;;;;;;;;;;;;;4738493;30;20035;-82
2023/03/28 08:44:06;;;;;;;;;;;;;;;;;;4738387;30;20338;-82
2023/03/28 08:46:32;;;;;;;;;;;;;;;;;;4742371;30;19933;-82
2023/03/28 08:48:57;;;;;;;;;;;;;;;;;;4744014;30;19926;-82
2023/03/28 08:51:24;;;;;;;;;;;;;;;;;;4753080;30;19973;-82
2023/03/28 08:53:50;;;;;;;;;;;;;;;;;;4754510;30;19983;-81
2023/03/28 08:56:16;;;;;;;;;;;;;;;;;;4755058;30;19926;-82
2023/03/28 08:58:46;;;;;;;;;;;;;;;;;;4735436;30;19937;-82
2023/03/28 09:01:12;;;;;;;;;;;;;;;;;;4739225;30;19934;-82
2023/03/28 09:03:38;;;;;;;;;;;;;;;;;;4760566;30;19930;-82
2023/03/28 09:06:04;;;;;;;;;;;;;;;;;;4746466;30;19937;-82
2023/03/28 09:08:30;;;;;;;;;;;;;;;;;;4755417;30;19934;-82
2023/03/28 09:10:56;;;;;;;;;;;;;;;;;;4751289;30;20018;-82
2023/03/28 09:13:22;;;;;;;;;;;;;;;;;;4742349;30;20020;-82
2023/03/28 09:15:48;;;;;;;;;;;;;;;;;;4746379;30;19936;-81
2023/03/28 09:18:14;;;;;;;;;;;;;;;;;;4755494;30;19987;-82
2023/03/28 09:20:40;;;;;;;;;;;;;;;;;;4759224;30;19937;-82
2023/03/28 09:23:06;;;;;;;;;;;;;;;;;;4736517;30;19936;-82
2023/03/28 09:25:32;;;;;;;;;;;;;;;;;;4744168;30;19930;-82
2023/03/28 09:27:58;;;;;;;;;;;;;;;;;;4751023;30;20305;-82
2023/03/28 09:30:24;;;;;;;;;;;;;;;;;;4751459;30;19973;-82
2023/03/28 09:32:51;;;;;;;;;;;;;;;;;;4730668;30;19963;-82
2023/03/28 09:35:17;;;;;;;;;;;;;;;;;;4749296;30;19985;-82
2023/03/28 09:37:43;;;;;;;;;;;;;;;;;;4744908;30;19968;-82
2023/03/28 09:40:09;;;;;;;;;;;;;;;;;;4752959;30;19948;-82
2023/03/28 09:42:36;;;;;;;;;;;;;;;;;;4751547;30;19929;-82
2023/03/28 09:45:03;;;;;;;;;;;;;;;;;;4749418;30;20361;-82
2023/03/28 09:47:29;;;;;;;;;;;;;;;;;;4753539;30;19927;-82
2023/03/28 09:49:55;;;;;;;;;;;;;;;;;;4730221;30;19931;-82
2023/03/28 09:52:21;;;;;;;;;;;;;;;;;;4757885;30;20368;-82
2023/03/28 09:54:47;;;;;;;;;;;;;;;;;;4751642;30;19953;-82
2023/03/28 09:57:13;;;;;;;;;;;;;;;;;;4753185;30;19933;-82
2023/03/28 09:59:39;;;;;;;;;;;;;;;;;;4744682;30;20020;-83
2023/03/28 10:02:05;;;;;;;;;;;;;;;;;;4747378;30;19926;-82
2023/03/28 10:04:31;;;;;;;;;;;;;;;;;;4740274;30;19942;-83
2023/03/28 10:06:57;;;;;;;;;;;;;;;;;;4750670;30;20433;-82
2023/03/28 10:09:23;;;;;;;;;;;;;;;;;;4757049;30;19991;-82
2023/03/28 10:11:49;;;;;;;;;;;;;;;;;;4729501;30;19930;-82
2023/03/28 10:14:15;;;;;;;;;;;;;;;;;;4738701;30;20394;-83
2023/03/28 10:16:41;;;;;;;;;;;;;;;;;;4755013;30;19954;-82
2023/03/28 10:19:07;;;;;;;;;;;;;;;;;;4738528;30;19983;-83
2023/03/28 10:21:33;;;;;;;;;;;;;;;;;;4739545;30;20352;-83
2023/03/28 10:23:59;;;;;;;;;;;;;;;;;;4735200;30;20347;-82
2023/03/28 10:26:26;;;;;;;;;;;;;;;;;;4732976;30;20298;-82
2023/03/28 10:28:53;;;;;;;;;;;;;;;;;;4733716;30;19976;-83
2023/03/28 10:31:19;;;;;;;;;;;;;;;;;;4752123;30;20386;-83
2023/03/28 10:33:45;;;;;;;;;;;;;;;;;;4747979;30;19973;-83
2023/03/28 10:36:11;;;;;;;;;;;;;;;;;;4739054;30;19933;-83
2023/03/28 10:38:37;;;;;;;;;;;;;;;;;;4741749;30;20279;-83
2023/03/28 10:41:03;;;;;;;;;;;;;;;;;;4737953;30;19936;-83
2023/03/28 10:43:29;;;;;;;;;;;;;;;;;;4749938;30;19984;-83
2023/03/28 10:45:55;;;;;;;;;;;;;;;;;;4731271;29;19984;-83
2023/03/28 10:48:21;;;;;;;;;;;;;;;;;;4740917;30;19965;-84
2023/03/28 10:50:47;;;;;;;;;;;;;;;;;;4750501;30;19937;-84
2023/03/28 10:53:13;;;;;;;;;;;;;;;;;;4758739;30;20494;-83
2023/03/28 10:55:39;;;;;;;;;;;;;;;;;;4755404;29;19926;-84
2023/03/28 10:58:05;;;;;;;;;;;;;;;;;;4736124;30;20370;-83
2023/03/28 11:00:31;;;;;;;;;;;;;;;;;;4762599;30;19926;-83
2023/03/28 11:02:57;;;;;;;;;;;;;;;;;;4747213;29;19972;-83
2023/03/28 11:05:24;;;;;;;;;;;;;;;;;;4735963;30;19929;-84
2023/03/28 11:07:50;;;;;;;;;;;;;;;;;;4733085;29;19965;-83
2023/03/28 11:10:16;;;;;;;;;;;;;;;;;;4775696;29;20338;-83
2023/03/28 11:12:42;;;;;;;;;;;;;;;;;;4740889;30;19926;-83
2023/03/28 11:15:08;;;;;;;;;;;;;;;;;;4752175;30;19934;-83
2023/03/28 11:17:34;;;;;;;;;;;;;;;;;;4750175;30;19929;-83
2023/03/28 11:20:00;;;;;;;;;;;;;;;;;;4738398;29;19937;-83
2023/03/28 11:22:26;;;;;;;;;;;;;;;;;;4738991;30;20272;-83
2023/03/28 11:24:52;;;;;;;;;;;;;;;;;;4748999;29;19934;-83
2023/03/28 11:27:18;;;;;;;;;;;;;;;;;;4749687;29;20018;-83
2023/03/28 11:29:45;;;;;;;;;;;;;;;;;;4754823;30;19934;-83
2023/03/28 11:32:11;;;;;;;;;;;;;;;;;;4744645;30;19938;-83
2023/03/28 11:34:37;;;;;;;;;;;;;;;;;;4740895;30;20309;-83
2023/03/28 11:37:03;;;;;;;;;;;;;;;;;;4753276;30;19925;-83
2023/03/28 11:39:29;;;;;;;;;;;;;;;;;;4759044;30;19929;-83
2023/03/28 11:41:55;;;;;;;;;;;;;;;;;;4748556;30;20028;-83
2023/03/28 11:44:21;;;;;;;;;;;;;;;;;;4753086;30;19963;-83
2023/03/28 11:46:47;;;;;;;;;;;;;;;;;;4733428;29;19941;-83
2023/03/28 11:49:13;;;;;;;;;;;;;;;;;;4756229;30;20292;-83
2023/03/28 11:51:44;;;;;;;;;;;;;;;;;;4742419;30;21335;-83
2023/03/28 11:54:10;;;;;;;;;;;;;;;;;;4750348;30;20032;-83
2023/03/28 11:56:36;;;;;;;;;;;;;;;;;;4739772;30;20016;-83
2023/03/28 11:59:02;;;;;;;;;;;;;;;;;;4751709;30;20431;-83
2023/03/28 12:01:28;;;;;;;;;;;;;;;;;;4742177;30;20366;-84
2023/03/28 12:03:54;;;;;;;;;;;;;;;;;;4739389;30;19936;-84
2023/03/28 12:06:20;;;;;;;;;;;;;;;;;;4750535;30;20349;-83
2023/03/28 12:08:46;;;;;;;;;;;;;;;;;;4754942;30;19925;-84
2023/03/28 12:11:12;;;;;;;;;;;;;;;;;;4752831;30;19944;-83
2023/03/28 12:13:38;;;;;;;;;;;;;;;;;;4740022;30;19925;-84
2023/03/28 12:16:04;;;;;;;;;;;;;;;;;;4754464;30;19996;-83
2023/03/28 12:18:30;;;;;;;;;;;;;;;;;;4754698;30;19933;-84
2023/03/28 12:20:59;;;;;;;;;;;;;;;;;;4731277;29;19929;-83
2023/03/28 12:23:25;;;;;;;;;;;;;;;;;;4744373;30;20024;-84
2023/03/28 12:28:56;;;;;;;;;;;;;;;;;;4726601;29;20434;-83
2023/03/28 12:31:21;;;;;;;;;;;;;;;;;;4744356;30;19976;-83
2023/03/28 12:33:47;;;;;;;;;;;;;;;;;;4734966;30;19973;-83
2023/03/28 12:36:16;;;;;;;;;;;;;;;;;;4745773;30;19937;-83
2023/03/28 12:38:42;;;;;;;;;;;;;;;;;;4743628;30;19969;-84
2023/03/28 12:41:08;;;;;;;;;;;;;;;;;;4765370;30;19967;-83
2023/03/28 12:43:34;;;;;;;;;;;;;;;;;;4772092;30;19933;-83
2023/03/28 12:46:00;;;;;;;;;;;;;;;;;;4759887;29;20321;-83
2023/03/28 12:48:26;;;;;;;;;;;;;;;;;;4734380;30;20017;-83
2023/03/28 12:50:52;;;;;;;;;;;;;;;;;;4761849;29;20036;-83
2023/03/28 12:53:20;;;;;;;;;;;;;;;;;;4736740;30;20411;-83
2023/03/28 12:55:46;;;;;;;;;;;;;;;;;;4737152;29;20008;-83
2023/03/28 12:58:12;;;;;;;;;;;;;;;;;;4770746;29;19930;-83
2023/03/28 13:00:38;;;;;;;;;;;;;;;;;;4769425;29;19983;-83
2023/03/28 13:03:04;;;;;;;;;;;;;;;;;;4743449;30;20016;-83
2023/03/28 13:05:30;;;;;;;;;;;;;;;;;;4746827;30;19936;-84
2023/03/28 13:07:56;;;;;;;;;;;;;;;;;;4744636;30;19933;-83
2023/03/28 13:10:23;;;;;;;;;;;;;;;;;;4759753;29;19937;-83
2023/03/28 13:12:48;;;;;;;;;;;;;;;;;;4742619;29;20427;-84
2023/03/28 13:15:15;;;;;;;;;;;;;;;;;;4764607;30;19925;-83
2023/03/28 13:17:44;;;;;;;;;;;;;;;;;;4734444;30;19941;-83
2023/03/28 13:20:10;;;;;;;;;;;;;;;;;;4736796;30;19981;-83
2023/03/28 13:22:36;;;;;;;;;;;;;;;;;;4749600;30;19925;-83
2023/03/28 13:25:01;;;;;;;;;;;;;;;;;;4763258;29;21358;-83
2023/03/28 13:27:27;;;;;;;;;;;;;;;;;;4738449;30;21396;-83
2023/03/28 13:29:53;;;;;;;;;;;;;;;;;;4744281;30;19937;-83
2023/03/28 13:32:19;;;;;;;;;;;;;;;;;;4753590;30;19969;-83
2023/03/28 13:34:45;;;;;;;;;;;;;;;;;;4747624;29;19930;-83
2023/03/28 13:37:11;;;;;;;;;;;;;;;;;;4767687;29;20417;-83
2023/03/28 13:39:37;;;;;;;;;;;;;;;;;;4748626;30;20043;-83
2023/03/28 13:42:03;;;;;;;;;;;;;;;;;;4761182;29;19986;-84
2023/03/28 13:44:29;;;;;;;;;;;;;;;;;;4749338;30;19968;-83
2023/03/28 13:46:55;;;;;;;;;;;;;;;;;;4761121;29;20016;-83
2023/03/28 13:49:21;;;;;;;;;;;;;;;;;;4735106;30;19945;-83
2023/03/28 13:51:47;;;;;;;;;;;;;;;;;;4736527;30;19930;-83
2023/03/28 13:54:13;;;;;;;;;;;;;;;;;;4760884;30;19929;-83
2023/03/28 13:56:42;;;;;;;;;;;;;;;;;;4760513;29;19933;-83
2023/03/28 13:59:08;;;;;;;;;;;;;;;;;;4764831;29;19929;-83
2023/03/28 14:01:36;;;;;;;;;;;;;;;;;;4744006;29;19952;-83
2023/03/28 14:06:52;;;;;;;;;;;;;;;;;;5280771;24;19933;-83
2023/03/28 14:09:17;;;;;;;;;;;;;;;;;;4727862;30;19933;-83
2023/03/28 14:11:43;;;;;;;;;;;;;;;;;;4718899;30;20005;-83
2023/03/28 14:14:09;;;;;;;;;;;;;;;;;;4725958;30;20201;-83
2023/03/28 14:16:35;;;;;;;;;;;;;;;;;;4741435;30;19941;-83
2023/03/28 14:19:01;;;;;;;;;;;;;;;;;;4736441;30;21469;-83
2023/03/28 14:21:27;;;;;;;;;;;;;;;;;;4746810;30;20293;-83
2023/03/28 14:23:53;;;;;;;;;;;;;;;;;;4738508;30;20014;-83
2023/03/28 14:26:22;;;;;;;;;;;;;;;;;;4734311;30;19930;-82
2023/03/28 14:28:48;;;;;;;;;;;;;;;;;;4717762;30;19937;-83
2023/03/28 14:31:14;;;;;;;;;;;;;;;;;;4728409;30;19938;-83
2023/03/28 14:33:40;;;;;;;;;;;;;;;;;;4715368;30;19937;-83
2023/03/28 14:36:09;;;;;;;;;;;;;;;;;;4714548;30;20488;-83
2023/03/28 14:38:36;;;;;;;;;;;;;;;;;;4724418;30;19991;-83
2023/03/28 14:41:02;;;;;;;;;;;;;;;;;;4723897;30;20029;-83
2023/03/28 14:43:28;;;;;;;;;;;;;;;;;;4712418;30;19930;-83
2023/03/28 14:45:57;;;;;;;;;;;;;;;;;;4704999;30;19974;-83
2023/03/28 14:48:23;;;;;;;;;;;;;;;;;;4733963;30;20024;-83
2023/03/28 14:50:49;;;;;;;;;;;;;;;;;;4729745;30;20024;-83
2023/03/28 14:53:15;;;;;;;;;;;;;;;;;;4746025;30;19940;-83
2023/03/28 14:55:41;;;;;;;;;;;;;;;;;;4717686;30;19930;-83
2023/03/28 14:58:07;;;;;;;;;;;;;;;;;;4728436;30;20028;-83
2023/03/28 15:00:33;;;;;;;;;;;;;;;;;;4734419;30;19932;-83
2023/03/28 15:02:59;;;;;;;;;;;;;;;;;;4741319;30;19933;-83
2023/03/28 15:05:25;;;;;;;;;;;;;;;;;;4717951;30;19934;-82
2023/03/28 15:07:51;;;;;;;;;;;;;;;;;;4741668;30;19934;-83
2023/03/28 15:10:18;;;;;;;;;;;;;;;;;;4733606;30;19941;-83
2023/03/28 15:12:44;;;;;;;;;;;;;;;;;;4724707;30;19937;-83
2023/03/28 15:15:10;;;;;;;;;;;;;;;;;;4712334;30;19937;-82
2023/03/28 15:17:37;;;;;;;;;;;;;;;;;;4729476;30;19934;-83
2023/03/28 15:20:03;;;;;;;;;;;;;;;;;;4714190;30;19934;-83
2023/03/28 15:22:29;;;;;;;;;;;;;;;;;;4719567;30;20019;-83
2023/03/28 15:24:55;;;;;;;;;;;;;;;;;;4725292;30;20022;-83
2023/03/28 15:27:21;;;;;;;;;;;;;;;;;;4712929;30;19930;-83
2023/03/28 15:29:47;;;;;;;;;;;;;;;;;;4713932;30;20387;-83
2023/03/28 15:32:13;;;;;;;;;;;;;;;;;;4715247;30;19956;-83
2023/03/28 15:34:39;;;;;;;;;;;;;;;;;;4722938;30;19930;-83
2023/03/28 15:37:07;;;;;;;;;;;;;;;;;;4742319;30;19933;-84
2023/03/28 15:39:33;;;;;;;;;;;;;;;;;;4732646;30;20361;-83
2023/03/28 15:41:59;;;;;;;;;;;;;;;;;;4722732;30;19930;-83
2023/03/28 15:44:26;;;;;;;;;;;;;;;;;;4727802;30;19949;-83
2023/03/28 15:46:52;;;;;;;;;;;;;;;;;;4720759;30;19988;-83
2023/03/28 15:49:18;;;;;;;;;;;;;;;;;;4728115;30;20397;-82
2023/03/28 15:51:44;;;;;;;;;;;;;;;;;;4716562;30;19972;-83
2023/03/28 15:54:10;;;;;;;;;;;;;;;;;;4725671;30;20500;-83
2023/03/28 15:56:39;;;;;;;;;;;;;;;;;;4723437;30;19941;-83
2023/03/28 15:59:05;;;;;;;;;;;;;;;;;;4707702;30;19938;-84
2023/03/28 16:01:31;;;;;;;;;;;;;;;;;;4724946;30;20393;-84
2023/03/28 16:03:57;;;;;;;;;;;;;;;;;;4727697;30;19930;-84
2023/03/28 16:06:23;;;;;;;;;;;;;;;;;;4731103;30;19953;-84
2023/03/28 16:08:49;;;;;;;;;;;;;;;;;;4728115;30;20596;-84
2023/03/28 16:11:16;;;;;;;;;;;;;;;;;;4718219;30;20030;-84
2023/03/28 16:13:42;;;;;;;;;;;;;;;;;;4727889;30;19975;-83
2023/03/28 16:16:08;;;;;;;;;;;;;;;;;;4727770;30;19933;-84
2023/03/28 16:18:34;;;;;;;;;;;;;;;;;;4726820;30;20390;-84
2023/03/28 16:21:00;;;;;;;;;;;;;;;;;;4710520;30;19936;-83
2023/03/28 16:23:26;;;;;;;;;;;;;;;;;;4720546;30;19930;-84
2023/03/28 16:25:52;;;;;;;;;;;;;;;;;;4702952;30;19933;-83
2023/03/28 16:28:18;;;;;;;;;;;;;;;;;;4729684;30;19926;-84
2023/03/28 16:30:44;;;;;;;;;;;;;;;;;;4719851;29;20461;-84
2023/03/28 16:33:10;;;;;;;;;;;;;;;;;;4732213;30;19926;-84
2023/03/28 16:35:36;;;;;;;;;;;;;;;;;;4710260;30;19965;-84
2023/03/28 16:38:02;;;;;;;;;;;;;;;;;;4708581;30;22147;-84
2023/03/28 16:40:28;;;;;;;;;;;;;;;;;;4718211;30;19973;-84
2023/03/28 16:42:54;;;;;;;;;;;;;;;;;;4705572;30;20040;-84
2023/03/28 16:45:21;;;;;;;;;;;;;;;;;;4733891;30;19927;-84
2023/03/28 16:47:47;;;;;;;;;;;;;;;;;;4707173;30;19930;-84
2023/03/28 16:50:13;;;;;;;;;;;;;;;;;;4727977;30;20386;-84
2023/03/28 16:52:39;;;;;;;;;;;;;;;;;;4718229;30;20004;-84
2023/03/28 16:55:05;;;;;;;;;;;;;;;;;;4736244;30;19933;-83
2023/03/28 16:57:31;;;;;;;;;;;;;;;;;;4728250;30;19926;-83
2023/03/28 16:59:57;;;;;;;;;;;;;;;;;;4709812;30;20029;-83
2023/03/28 17:02:23;;;;;;;;;;;;;;;;;;4730513;30;20295;-83
2023/03/28 17:04:49;;;;;;;;;;;;;;;;;;4725360;30;21362;-84
2023/03/28 17:07:15;;;;;;;;;;;;;;;;;;4733710;30;19945;-83
2023/03/28 17:09:42;;;;;;;;;;;;;;;;;;4721281;30;20226;-84
2023/03/28 17:12:07;;;;;;;;;;;;;;;;;;4717280;30;19934;-84
2023/03/28 17:14:34;;;;;;;;;;;;;;;;;;4721740;30;20354;-84
2023/03/28 17:17:00;;;;;;;;;;;;;;;;;;4732288;30;20412;-84
2023/03/28 17:19:27;;;;;;;;;;;;;;;;;;4721821;30;20004;-83